createdAt,value
2022-12-08T00:00:01.896Z,6.01
2022-12-08T00:02:30.314Z,5.76
2022-12-08T00:05:21.938Z,5.88
2022-12-08T00:08:29.071Z,6.16
2022-12-08T00:10:57.832Z,5.98
2022-12-08T00:13:25.826Z,6.13
2022-12-08T00:15:52.667Z,6.08
2022-12-08T00:18:21.836Z,5.94
2022-12-08T00:20:59.328Z,6.00
2022-12-08T00:23:29.524Z,5.95
2022-12-08T00:25:57.343Z,5.97
2022-12-08T00:28:24.265Z,5.81
2022-12-08T00:30:58.418Z,5.86
2022-12-08T00:33:25.274Z,5.84
2022-12-08T00:35:51.955Z,6.12
2022-12-08T00:38:21.408Z,6.05
2022-12-08T00:40:48.508Z,5.95
2022-12-08T00:43:17.731Z,5.84
2022-12-08T00:45:44.596Z,6.20
2022-12-08T00:48:13.727Z,5.72
2022-12-08T00:50:40.643Z,6.25
2022-12-08T00:53:09.737Z,6.34
2022-12-08T00:55:36.656Z,6.29
2022-12-08T00:58:03.832Z,5.64
2022-12-08T01:00:32.378Z,6.21
2022-12-08T01:02:59.642Z,6.18
2022-12-08T01:05:29.995Z,6.05
2022-12-08T01:08:07.460Z,5.86
2022-12-08T01:10:38.740Z,5.77
2022-12-08T01:13:05.642Z,5.71
2022-12-08T01:15:48.489Z,5.72
2022-12-08T01:18:19.346Z,5.83
2022-12-08T01:20:56.170Z,5.89
2022-12-08T01:23:23.638Z,6.00
2022-12-08T01:26:08.471Z,5.88
2022-12-08T01:28:38.853Z,5.67
2022-12-08T01:31:19.798Z,5.51
2022-12-08T01:33:48.917Z,5.50
2022-12-08T01:36:31.222Z,5.71
2022-12-08T01:39:08.525Z,5.33
2022-12-08T01:41:45.377Z,5.53
2022-12-08T01:44:12.752Z,4.42
2022-12-08T01:46:44.059Z,5.61
2022-12-08T01:49:21.663Z,5.86
2022-12-08T01:52:13.463Z,5.87
2022-12-08T01:54:48.686Z,5.74
2022-12-08T02:01:36.616Z,5.53
2022-12-08T02:07:45.020Z,5.40
2022-12-08T02:10:16.819Z,5.39
2022-12-08T02:12:43.855Z,5.48
2022-12-08T02:15:11.129Z,5.53
2022-12-08T02:17:40.893Z,4.94
2022-12-08T02:20:53.820Z,5.44
2022-12-08T02:23:35.053Z,5.52
2022-12-08T02:26:04.761Z,5.54
2022-12-08T02:28:51.380Z,5.67
2022-12-08T02:31:57.110Z,5.65
2022-12-08T02:34:36.232Z,5.45
2022-12-08T02:37:12.035Z,5.57
2022-12-08T02:39:59.984Z,5.59
2022-12-08T02:42:36.400Z,5.73
2022-12-08T02:45:14.802Z,5.89
2022-12-08T02:47:42.325Z,5.95
2022-12-08T02:50:12.408Z,6.07
2022-12-08T02:52:49.287Z,6.05
2022-12-08T02:55:44.828Z,5.66
2022-12-08T02:58:31.694Z,5.94
2022-12-08T03:01:29.405Z,5.98
2022-12-08T03:04:08.711Z,5.95
2022-12-08T03:07:05.332Z,6.05
2022-12-08T03:09:54.309Z,6.12
2022-12-08T03:12:48.791Z,6.08
2022-12-08T03:15:18.896Z,5.63
2022-12-08T03:17:54.925Z,5.98
2022-12-08T03:20:27.194Z,5.99
2022-12-08T03:22:58.586Z,5.94
2022-12-08T03:25:39.474Z,6.03
2022-12-08T03:28:06.567Z,5.63
2022-12-08T03:30:38.837Z,5.72
2022-12-08T03:33:30.563Z,6.05
2022-12-08T03:35:59.872Z,5.97
2022-12-08T03:38:26.761Z,5.87
2022-12-08T03:41:12.233Z,5.81
2022-12-08T03:43:39.043Z,5.90
2022-12-08T03:46:06.148Z,5.77
2022-12-08T03:48:32.979Z,5.66
2022-12-08T03:50:59.631Z,5.66
2022-12-08T03:53:26.703Z,5.78
2022-12-08T03:55:59.227Z,5.59
2022-12-08T03:58:25.976Z,6.07
2022-12-08T04:00:52.808Z,6.03
2022-12-08T04:03:22.608Z,5.76
2022-12-08T04:05:49.416Z,6.13
2022-12-08T04:08:19.342Z,6.22
2022-12-08T04:10:47.526Z,6.03
2022-12-08T04:13:20.736Z,6.22
2022-12-08T04:15:48.674Z,6.02
2022-12-08T04:18:17.379Z,6.03
2022-12-08T04:20:45.124Z,6.22
2022-12-08T04:23:15.876Z,6.22
2022-12-08T04:25:45.496Z,6.37
2022-12-08T04:28:13.173Z,6.29
2022-12-08T04:30:41.886Z,6.13
2022-12-08T04:33:08.579Z,6.24
2022-12-08T04:35:35.371Z,6.16
2022-12-08T04:38:07.882Z,6.19
2022-12-08T04:40:34.615Z,6.04
2022-12-08T04:43:01.371Z,6.05
2022-12-08T04:45:28.317Z,5.58
2022-12-08T04:48:07.771Z,5.91
2022-12-08T04:50:34.863Z,5.83
2022-12-08T04:53:04.319Z,5.68
2022-12-08T04:55:31.569Z,5.96
2022-12-08T04:57:58.324Z,5.90
2022-12-08T05:00:31.121Z,6.10
2022-12-08T05:03:02.955Z,6.06
2022-12-08T05:05:32.443Z,5.95
2022-12-08T05:07:59.292Z,5.98
2022-12-08T05:10:27.375Z,5.82
2022-12-08T05:12:54.204Z,5.93
2022-12-08T05:15:21.009Z,5.74
2022-12-08T05:17:47.802Z,6.03
2022-12-08T05:20:14.693Z,6.11
2022-12-08T05:22:41.478Z,6.01
2022-12-08T05:25:08.393Z,6.15
2022-12-08T05:27:35.774Z,6.19
2022-12-08T05:30:02.974Z,6.10
2022-12-08T05:32:32.600Z,6.02
2022-12-08T05:34:59.512Z,6.21
2022-12-08T05:37:26.291Z,6.13
2022-12-08T05:39:53.693Z,6.20
2022-12-08T05:42:24.617Z,6.05
2022-12-08T05:44:51.824Z,6.12
2022-12-08T05:47:18.658Z,6.23
2022-12-08T05:52:12.062Z,5.01
2022-12-08T05:54:41.960Z,6.02
2022-12-08T05:57:08.945Z,5.92
2022-12-08T05:59:35.655Z,5.87
2022-12-08T06:02:02.587Z,5.93
2022-12-08T06:04:29.397Z,5.90
2022-12-08T06:06:58.186Z,6.04
2022-12-08T06:09:25.308Z,5.88
2022-12-08T06:11:58.109Z,5.88
2022-12-08T06:14:27.719Z,6.08
2022-12-08T06:16:54.524Z,6.02
2022-12-08T06:19:21.356Z,5.98
2022-12-08T06:21:47.985Z,6.11
2022-12-08T06:24:14.877Z,5.88
2022-12-08T06:26:41.880Z,5.72
2022-12-08T06:29:08.724Z,5.84
2022-12-08T06:31:35.817Z,5.77
2022-12-08T06:34:02.721Z,5.92
2022-12-08T06:36:30.436Z,6.28
2022-12-08T06:38:57.987Z,6.11
2022-12-08T06:41:25.976Z,6.20
2022-12-08T06:43:58.403Z,5.93
2022-12-08T06:46:25.421Z,5.99
2022-12-08T06:48:52.251Z,6.15
2022-12-08T06:51:20.937Z,5.78
2022-12-08T06:53:54.483Z,6.08
2022-12-08T06:56:24.023Z,5.88
2022-12-08T06:58:52.977Z,5.93
2022-12-08T07:01:20.114Z,5.93
2022-12-08T07:03:48.269Z,5.89
2022-12-08T07:06:20.710Z,5.87
2022-12-08T07:08:47.545Z,5.91
2022-12-08T07:11:19.767Z,5.91
2022-12-08T07:13:48.612Z,5.83
2022-12-08T07:16:18.702Z,6.10
2022-12-08T07:18:45.576Z,6.03
2022-12-08T07:21:15.036Z,5.97
2022-12-08T07:23:42.402Z,5.98
2022-12-08T07:26:12.416Z,5.73
2022-12-08T07:28:40.978Z,6.22
2022-12-08T07:31:19.656Z,5.65
2022-12-08T07:33:46.910Z,5.83
2022-12-08T07:36:13.984Z,6.00
2022-12-08T07:38:40.719Z,5.91
2022-12-08T07:41:12.523Z,5.94
2022-12-08T07:43:42.946Z,5.93
2022-12-08T07:46:16.530Z,4.24
2022-12-08T07:48:43.784Z,5.12
2022-12-08T07:51:13.959Z,6.09
2022-12-08T07:53:43.430Z,5.90
2022-12-08T07:56:13.653Z,6.06
2022-12-08T07:58:42.224Z,5.97
2022-12-08T08:01:20.282Z,5.78
2022-12-08T08:03:47.229Z,6.36
2022-12-08T08:06:13.872Z,5.87
2022-12-08T08:08:40.672Z,6.31
2022-12-08T08:11:15.768Z,6.39
2022-12-08T08:13:49.852Z,6.19
2022-12-08T08:16:16.879Z,6.14
2022-12-08T08:18:43.866Z,6.32
2022-12-08T08:21:43.749Z,6.36
2022-12-08T08:24:00.887Z,6.27
2022-12-08T08:26:27.686Z,6.13
2022-12-08T08:28:58.216Z,6.48
2022-12-08T08:31:27.271Z,6.19
2022-12-08T08:33:56.421Z,6.40
2022-12-08T08:36:23.313Z,6.45
2022-12-08T08:38:50.105Z,6.47
2022-12-08T08:41:16.839Z,6.29
2022-12-08T08:43:44.147Z,6.31
2022-12-08T08:46:11.828Z,6.27
2022-12-08T08:48:38.699Z,6.37
2022-12-08T08:51:16.732Z,6.58
2022-12-08T08:53:43.937Z,6.58
2022-12-08T08:56:12.296Z,6.49
2022-12-08T08:58:39.212Z,6.75
2022-12-08T09:01:08.496Z,6.95
2022-12-08T09:03:35.359Z,6.96
2022-12-08T09:06:05.034Z,6.92
2022-12-08T09:08:32.183Z,6.72
2022-12-08T09:10:58.946Z,6.80
2022-12-08T09:13:26.078Z,6.71
2022-12-08T09:15:52.999Z,6.78
2022-12-08T09:18:19.923Z,7.03
2022-12-08T09:20:46.593Z,7.15
2022-12-08T09:23:13.316Z,7.34
2022-12-08T09:25:44.779Z,6.90
2022-12-08T09:28:12.023Z,7.33
2022-12-08T09:30:39.741Z,7.15
2022-12-08T09:33:08.326Z,6.96
2022-12-08T09:35:35.011Z,7.36
2022-12-08T09:38:01.702Z,7.30
2022-12-08T09:40:30.201Z,7.16
2022-12-08T09:43:19.838Z,7.13
2022-12-08T09:45:48.711Z,6.94
2022-12-08T09:48:23.377Z,6.87
2022-12-08T09:50:58.418Z,6.95
2022-12-08T09:53:35.323Z,5.92
2022-12-08T09:56:39.101Z,7.07
2022-12-08T09:59:21.127Z,7.07
2022-12-08T10:01:48.187Z,7.18
2022-12-08T10:04:26.111Z,7.15
2022-12-08T10:07:05.086Z,7.45
2022-12-08T10:09:56.629Z,7.46
2022-12-08T10:12:31.545Z,7.28
2022-12-08T10:15:22.541Z,7.23
2022-12-08T10:17:51.243Z,7.41
2022-12-08T10:20:20.443Z,6.92
2022-12-08T10:22:52.411Z,7.39
2022-12-08T10:25:34.187Z,6.90
2022-12-08T10:28:00.986Z,7.41
2022-12-08T10:30:27.764Z,7.65
2022-12-08T10:32:54.826Z,7.84
2022-12-08T10:35:23.966Z,7.62
2022-12-08T10:38:06.601Z,8.03
2022-12-08T10:40:45.410Z,7.76
2022-12-08T10:43:25.568Z,7.63
2022-12-08T10:45:52.804Z,7.77
2022-12-08T10:48:23.146Z,7.69
2022-12-08T10:50:55.020Z,7.18
2022-12-08T10:53:29.492Z,7.21
2022-12-08T10:56:02.181Z,7.70
2022-12-08T10:58:43.816Z,7.74
2022-12-08T11:01:33.719Z,7.59
2022-12-08T11:04:03.307Z,7.64
2022-12-08T11:06:38.448Z,7.68
2022-12-08T11:09:18.069Z,7.73
2022-12-08T11:11:56.284Z,7.64
2022-12-08T11:14:33.503Z,7.47
2022-12-08T11:17:10.490Z,7.70
2022-12-08T11:19:39.640Z,7.66
2022-12-08T11:22:32.572Z,7.75
2022-12-08T11:25:05.982Z,7.76
2022-12-08T11:27:36.323Z,7.95
2022-12-08T11:30:15.157Z,7.81
2022-12-08T11:32:44.895Z,7.94
2022-12-08T11:35:39.204Z,7.91
2022-12-08T11:38:24.058Z,8.04
2022-12-08T11:41:00.112Z,8.18
2022-12-08T11:43:36.071Z,8.28
2022-12-08T11:46:17.829Z,8.14
2022-12-08T11:48:47.561Z,8.16
2022-12-08T11:51:22.756Z,8.01
2022-12-08T11:53:53.472Z,8.33
2022-12-08T11:56:33.625Z,8.24
2022-12-08T11:59:23.345Z,8.06
2022-12-08T12:01:50.485Z,7.98
2022-12-08T12:04:38.416Z,8.19
2022-12-08T12:07:38.046Z,8.21
2022-12-08T12:10:23.241Z,7.99
2022-12-08T12:13:29.895Z,8.18
2022-12-08T12:16:25.664Z,8.45
2022-12-08T12:19:00.919Z,8.36
2022-12-08T12:21:37.059Z,7.88
2022-12-08T12:24:35.572Z,8.24
2022-12-08T12:27:17.903Z,7.74
2022-12-08T12:30:13.152Z,8.11
2022-12-08T12:32:51.891Z,8.22
2022-12-08T12:35:41.770Z,8.25
2022-12-08T12:38:47.731Z,8.25
2022-12-08T12:41:19.729Z,8.29
2022-12-08T12:44:24.166Z,8.54
2022-12-08T12:46:54.031Z,8.22
2022-12-08T12:49:39.360Z,8.70
2022-12-08T12:52:19.002Z,8.87
2022-12-08T12:54:54.046Z,8.88
2022-12-08T12:57:20.628Z,8.84
2022-12-08T12:59:55.514Z,8.75
2022-12-08T13:02:25.659Z,9.13
2022-12-08T13:05:18.851Z,9.03
2022-12-08T13:08:02.705Z,9.15
2022-12-08T13:10:33.359Z,9.25
2022-12-08T13:13:16.772Z,8.90
2022-12-08T13:15:46.988Z,8.93
2022-12-08T13:18:39.862Z,8.50
2022-12-08T13:21:09.475Z,8.33
2022-12-08T13:23:47.302Z,8.61
2022-12-08T13:26:30.685Z,8.49
2022-12-08T13:29:08.800Z,8.69
2022-12-08T13:31:35.496Z,8.86
2022-12-08T13:34:06.979Z,8.89
2022-12-08T13:36:39.334Z,8.93
2022-12-08T13:39:17.609Z,8.60
2022-12-08T13:41:53.494Z,8.80
2022-12-08T13:48:14.148Z,8.78
2022-12-08T13:59:30.870Z,8.71
2022-12-08T14:02:15.859Z,8.77
2022-12-08T14:05:16.941Z,8.69
2022-12-08T14:07:34.217Z,8.35
2022-12-08T14:10:03.732Z,8.53
2022-12-08T14:12:33.620Z,7.09
2022-12-08T14:15:06.829Z,8.15
2022-12-08T14:17:42.944Z,8.76
2022-12-08T14:20:20.321Z,8.18
2022-12-08T14:22:52.691Z,8.71
2022-12-08T14:25:21.280Z,8.60
2022-12-08T14:27:48.526Z,8.63
2022-12-08T14:30:28.575Z,8.57
2022-12-08T14:33:01.212Z,8.64
2022-12-08T14:35:35.639Z,8.54
2022-12-08T14:38:05.449Z,8.53
2022-12-08T14:40:41.806Z,8.46
2022-12-08T14:43:13.578Z,8.40
2022-12-08T14:45:50.839Z,8.35
2022-12-08T14:48:23.423Z,8.34
2022-12-08T14:51:18.914Z,8.25
2022-12-08T14:53:46.590Z,8.26
2022-12-08T14:56:26.859Z,8.29
2022-12-08T14:59:05.269Z,8.28
2022-12-08T15:01:32.733Z,8.35
2022-12-08T15:04:28.151Z,8.42
2022-12-08T15:07:17.100Z,8.36
2022-12-08T15:09:49.459Z,8.32
2022-12-08T15:12:27.413Z,7.83
2022-12-08T15:15:02.308Z,7.77
2022-12-08T15:17:42.153Z,8.18
2022-12-08T15:20:46.004Z,7.95
2022-12-08T15:23:21.491Z,8.03
2022-12-08T15:25:49.563Z,8.06
2022-12-08T15:28:19.461Z,8.14
2022-12-08T15:30:47.702Z,7.65
2022-12-08T15:33:14.778Z,7.99
2022-12-08T15:35:42.065Z,7.56
2022-12-08T15:38:21.433Z,8.14
2022-12-08T15:40:48.639Z,8.16
2022-12-08T15:43:15.395Z,8.20
2022-12-08T15:45:56.289Z,8.11
2022-12-08T15:48:27.529Z,8.10
2022-12-08T15:50:55.047Z,8.09
2022-12-08T15:53:23.964Z,7.70
2022-12-08T15:56:26.455Z,8.08
2022-12-08T15:58:56.549Z,8.04
2022-12-08T16:01:26.680Z,7.78
2022-12-08T16:09:44.668Z,8.18
2022-12-08T16:15:59.734Z,8.17
2022-12-08T16:18:27.698Z,8.11
2022-12-08T16:21:22.885Z,8.29
2022-12-08T16:23:43.606Z,8.40
2022-12-08T16:26:28.541Z,8.24
2022-12-08T16:29:04.812Z,8.48
2022-12-08T16:31:37.754Z,8.83
2022-12-08T16:34:04.422Z,8.84
2022-12-08T16:36:31.252Z,8.68
2022-12-08T16:38:59.662Z,8.67
2022-12-08T16:41:49.174Z,8.77
2022-12-08T16:44:16.237Z,8.73
2022-12-08T16:46:43.252Z,8.41
2022-12-08T16:49:13.084Z,8.70
2022-12-08T16:51:42.729Z,8.76
2022-12-08T16:54:09.785Z,8.74
2022-12-08T16:56:36.854Z,8.56
2022-12-08T16:59:04.122Z,8.66
2022-12-08T17:01:32.031Z,8.96
2022-12-08T17:06:45.871Z,9.12
2022-12-08T17:09:12.582Z,9.01
2022-12-08T17:11:43.274Z,8.86
2022-12-08T17:14:14.835Z,8.58
2022-12-08T17:16:43.143Z,8.48
2022-12-08T17:19:10.400Z,8.47
2022-12-08T17:21:37.351Z,8.42
2022-12-08T17:24:04.997Z,8.12
2022-12-08T17:26:31.950Z,8.27
2022-12-08T17:29:03.664Z,8.44
2022-12-08T17:31:34.720Z,8.50
2022-12-08T17:34:03.428Z,8.08
2022-12-08T17:36:34.201Z,8.55
2022-12-08T17:39:05.742Z,8.34
2022-12-08T17:41:33.347Z,8.63
2022-12-08T17:44:00.344Z,9.08
2022-12-08T17:46:28.984Z,9.03
2022-12-08T17:48:55.946Z,9.02
2022-12-08T17:51:22.931Z,9.01
2022-12-08T17:53:49.787Z,8.86
2022-12-08T17:56:21.710Z,8.64
2022-12-08T17:58:54.281Z,8.18
2022-12-08T18:01:23.935Z,8.57
2022-12-08T18:03:51.766Z,8.38
2022-12-08T18:06:18.730Z,8.40
2022-12-08T18:08:46.173Z,8.23
2022-12-08T18:11:17.230Z,7.99
2022-12-08T18:13:47.102Z,7.98
2022-12-08T18:16:17.595Z,8.33
2022-12-08T18:18:44.390Z,8.29
2022-12-08T18:21:19.908Z,8.30
2022-12-08T18:23:51.919Z,8.32
2022-12-08T18:26:19.812Z,8.30
2022-12-08T18:28:47.156Z,8.38
2022-12-08T18:31:20.283Z,9.40
2022-12-08T18:33:48.580Z,9.79
2022-12-08T18:36:21.546Z,9.78
2022-12-08T18:38:48.680Z,9.92
2022-12-08T18:41:21.137Z,9.75
2022-12-08T18:43:47.960Z,10.43
2022-12-08T18:46:17.786Z,10.14
2022-12-08T18:48:47.650Z,9.97
2022-12-08T18:51:19.718Z,9.66
2022-12-08T18:53:46.706Z,9.41
2022-12-08T18:56:34.989Z,10.27
2022-12-08T18:59:11.819Z,10.42
2022-12-08T19:01:40.094Z,10.93
2022-12-08T19:04:28.040Z,11.05
2022-12-08T19:06:58.218Z,10.88
2022-12-08T19:09:32.175Z,10.29
2022-12-08T19:11:59.158Z,9.97
2022-12-08T19:14:28.577Z,9.68
2022-12-08T19:16:56.091Z,9.43
2022-12-08T19:19:22.827Z,9.11
2022-12-08T19:21:52.672Z,9.12
2022-12-08T19:24:24.174Z,9.28
2022-12-08T19:26:52.466Z,9.95
2022-12-08T19:29:19.849Z,10.32
2022-12-08T19:31:46.734Z,10.08
2022-12-08T19:34:14.481Z,9.08
2022-12-08T19:36:47.434Z,9.37
2022-12-08T19:39:38.404Z,9.81
2022-12-08T19:42:37.885Z,10.42
2022-12-08T19:45:12.249Z,10.05
2022-12-08T19:47:43.523Z,10.83
2022-12-08T19:50:33.084Z,10.44
2022-12-08T19:53:00.789Z,10.36
2022-12-08T19:55:28.435Z,11.04
2022-12-08T19:57:56.996Z,10.95
2022-12-08T20:00:26.482Z,10.51
2022-12-08T20:02:54.544Z,10.03
2022-12-08T20:05:22.014Z,9.72
2022-12-08T20:07:56.019Z,9.70
2022-12-08T20:10:36.131Z,9.98
2022-12-08T20:13:25.329Z,9.99
2022-12-08T20:15:58.137Z,11.00
2022-12-08T20:18:28.123Z,10.74
2022-12-08T20:20:57.210Z,10.50
2022-12-08T20:23:27.573Z,10.33
2022-12-08T20:25:56.624Z,9.97
2022-12-08T20:28:23.995Z,10.54
2022-12-08T20:30:53.363Z,10.75
2022-12-08T20:33:22.560Z,9.98
2022-12-08T20:36:00.234Z,10.13
2022-12-08T20:38:30.256Z,10.85
2022-12-08T20:40:59.291Z,11.68
2022-12-08T20:43:29.964Z,11.02
2022-12-08T20:45:58.114Z,11.30
2022-12-08T20:48:28.106Z,10.45
2022-12-08T20:50:57.906Z,11.01
2022-12-08T20:53:25.455Z,10.78
2022-12-08T20:55:52.648Z,10.85
2022-12-08T20:58:19.457Z,10.77
2022-12-08T21:00:46.431Z,10.73
2022-12-08T21:03:14.286Z,11.84
2022-12-08T21:05:46.984Z,12.33
2022-12-08T21:08:15.456Z,11.71
2022-12-08T21:10:44.113Z,11.56
2022-12-08T21:13:11.301Z,11.02
2022-12-08T21:15:38.489Z,11.36
2022-12-08T21:18:05.378Z,11.89
2022-12-08T21:20:32.193Z,11.66
2022-12-08T21:22:59.094Z,11.41
2022-12-08T21:25:26.080Z,10.80
2022-12-08T21:27:52.914Z,10.31
2022-12-08T21:30:19.677Z,9.78
2022-12-08T21:32:46.896Z,9.56
2022-12-08T21:35:14.017Z,9.42
2022-12-08T21:37:42.962Z,9.10
2022-12-08T21:40:10.775Z,8.76
2022-12-08T21:42:44.052Z,8.92
2022-12-08T21:45:27.726Z,8.32
2022-12-08T21:48:10.321Z,9.75
2022-12-08T21:50:42.020Z,9.81
2022-12-08T21:53:08.751Z,9.11
2022-12-08T21:55:39.481Z,10.15
2022-12-08T21:58:06.315Z,9.92
2022-12-08T22:00:33.430Z,9.90
2022-12-08T22:03:00.509Z,10.40
2022-12-08T22:05:27.660Z,10.11
2022-12-08T22:07:54.720Z,10.91
2022-12-08T22:10:25.347Z,11.76
2022-12-08T22:12:52.057Z,11.59
2022-12-08T22:15:19.220Z,10.76
2022-12-08T22:17:49.472Z,10.04
2022-12-08T22:20:17.706Z,10.94
2022-12-08T22:22:55.258Z,11.12
2022-12-08T22:25:28.409Z,11.38
2022-12-08T22:28:25.692Z,10.91
2022-12-08T22:32:14.652Z,10.24
2022-12-08T22:42:59.558Z,8.11
2022-12-08T22:48:51.424Z,8.71
2022-12-08T22:51:32.708Z,8.65
2022-12-08T23:02:40.004Z,8.16
2022-12-08T23:05:36.306Z,8.16
2022-12-08T23:09:43.422Z,7.71
2022-12-08T23:11:15.471Z,7.62
2022-12-08T23:13:53.304Z,8.83
2022-12-08T23:16:29.563Z,8.86
2022-12-08T23:18:59.190Z,8.73
2022-12-08T23:21:25.974Z,8.48
2022-12-08T23:23:52.589Z,8.31
2022-12-08T23:26:20.984Z,8.12
2022-12-08T23:28:52.310Z,8.01
2022-12-08T23:31:20.204Z,7.98
2022-12-08T23:33:50.029Z,8.01
2022-12-08T23:36:21.086Z,7.96
2022-12-08T23:38:48.576Z,7.79
2022-12-08T23:41:16.293Z,8.54
2022-12-08T23:43:51.354Z,8.01
2022-12-08T23:46:21.216Z,8.49
2022-12-08T23:48:48.548Z,8.30
2022-12-08T23:51:15.980Z,8.34
2022-12-08T23:53:43.283Z,8.18
2022-12-08T23:56:13.530Z,8.04
2022-12-08T23:58:43.765Z,7.13
